Time;durP1;ratioP1;P1;durP2;ratioP2;P2;SDS_P1;SDS_P2;PMS_P1;PMS_P2;Temp;Humidity;BMP_temperature;BMP_pressure;BME280_temperature;BME280_humidity;BME280_pressure;Samples;Min_cycle;Max_cycle;Signal;HPM_P1;HPM_P2
2023/08/31 00:01:29;;;;;;;4.88;3.88;;;;;;;;;;5033455;28;20029;-68
2023/08/31 00:03:54;;;;;;;4.10;3.72;;;;;;;;;;5033510;28;20029;-70
2023/08/31 00:06:21;;;;;;;7.10;4.63;;;;;;;;;;5033629;28;20028;-71
2023/08/31 00:08:47;;;;;;;7.05;4.20;;;;;;;;;;5033518;28;20033;-69
2023/08/31 00:11:12;;;;;;;4.00;3.63;;;;;;;;;;5033753;28;20032;-72
2023/08/31 00:13:38;;;;;;;7.38;4.32;;;;;;;;;;5034112;28;20116;-70
2023/08/31 00:16:04;;;;;;;4.10;3.80;;;;;;;;;;5033417;28;20040;-70
2023/08/31 00:18:30;;;;;;;6.18;3.85;;;;;;;;;;5033548;28;20033;-70
2023/08/31 00:20:55;;;;;;;4.40;3.63;;;;;;;;;;5011926;28;20395;-70
2023/08/31 00:23:20;;;;;;;3.88;3.58;;;;;;;;;;5013549;28;20539;-70
2023/08/31 00:25:47;;;;;;;6.07;3.88;;;;;;;;;;5013855;28;20034;-70
2023/08/31 00:28:15;;;;;;;4.13;3.85;;;;;;;;;;5020860;28;20449;-70
2023/08/31 00:30:41;;;;;;;6.38;4.10;;;;;;;;;;5033267;28;20473;-70
2023/08/31 00:33:07;;;;;;;4.22;3.92;;;;;;;;;;5033194;28;20120;-70
2023/08/31 00:35:33;;;;;;;4.28;3.72;;;;;;;;;;5015569;28;20503;-70
2023/08/31 00:37:58;;;;;;;4.13;3.80;;;;;;;;;;5031910;28;20071;-70
2023/08/31 00:40:24;;;;;;;5.05;3.72;;;;;;;;;;5032083;28;20373;-70
2023/08/31 00:42:50;;;;;;;5.57;3.60;;;;;;;;;;5032088;28;20124;-69
2023/08/31 00:45:15;;;;;;;4.38;3.97;;;;;;;;;;5031851;28;20562;-69
2023/08/31 00:47:41;;;;;;;5.55;3.70;;;;;;;;;;5033235;28;20055;-70
2023/08/31 00:50:07;;;;;;;4.13;3.55;;;;;;;;;;5015301;28;20401;-71
2023/08/31 00:52:34;;;;;;;4.65;3.20;;;;;;;;;;5033633;28;20047;-71
2023/08/31 00:55:00;;;;;;;3.75;3.45;;;;;;;;;;5031741;28;20465;-71
2023/08/31 00:57:26;;;;;;;2.92;2.72;;;;;;;;;;5031806;28;20417;-67
2023/08/31 00:59:52;;;;;;;3.80;3.50;;;;;;;;;;5033019;28;20033;-67
2023/08/31 01:02:53;;;;;;;3.92;3.15;;;;;;;;;;5031950;28;20048;-66
2023/08/31 01:05:38;;;;;;;9.15;3.83;;;;;;;;;;4952967;29;20487;-66
2023/08/31 01:08:33;;;;;;;3.55;3.25;;;;;;;;;;5026517;28;20072;-67
2023/08/31 01:11:03;;;;;;;3.25;3.03;;;;;;;;;;5019465;28;20053;-67
2023/08/31 01:13:30;;;;;;;3.13;2.90;;;;;;;;;;5035534;28;20405;-67
2023/08/31 01:15:58;;;;;;;3.22;3.00;;;;;;;;;;5035169;28;20115;-69
2023/08/31 01:18:25;;;;;;;4.05;3.25;;;;;;;;;;5035041;28;20470;-69
2023/08/31 01:21:10;;;;;;;4.35;3.17;;;;;;;;;;5053170;28;20079;-69
2023/08/31 01:23:58;;;;;;;4.55;3.03;;;;;;;;;;5039134;28;20044;-70
2023/08/31 01:26:23;;;;;;;4.85;3.47;;;;;;;;;;5056193;28;20025;-69
2023/08/31 01:28:50;;;;;;;4.82;3.47;;;;;;;;;;5021707;28;20116;-69
2023/08/31 01:31:16;;;;;;;3.78;3.47;;;;;;;;;;5021204;28;20434;-67
2023/08/31 01:33:42;;;;;;;3.78;3.45;;;;;;;;;;5038185;28;20111;-65
2023/08/31 01:36:20;;;;;;;4.18;3.78;;;;;;;;;;5056210;28;20041;-67
2023/08/31 01:38:48;;;;;;;5.22;3.63;;;;;;;;;;5037946;28;20174;-69
2023/08/31 01:41:17;;;;;;;4.20;3.78;;;;;;;;;;5055928;28;20374;-69
2023/08/31 01:43:43;;;;;;;4.45;4.03;;;;;;;;;;5037839;28;20546;-69
2023/08/31 01:46:09;;;;;;;5.18;4.10;;;;;;;;;;5037867;28;20067;-69
2023/08/31 01:48:39;;;;;;;5.10;3.83;;;;;;;;;;5038125;28;20473;-69
2023/08/31 01:51:05;;;;;;;5.13;4.57;;;;;;;;;;5038178;28;20029;-69
2023/08/31 01:53:32;;;;;;;4.55;4.13;;;;;;;;;;5038212;28;20041;-69
2023/08/31 01:55:57;;;;;;;6.97;4.68;;;;;;;;;;5037698;28;20055;-69
2023/08/31 01:58:22;;;;;;;4.78;4.43;;;;;;;;;;5037622;28;20025;-70
2023/08/31 02:00:48;;;;;;;5.60;4.45;;;;;;;;;;5037504;28;20477;-70
2023/08/31 02:03:13;;;;;;;5.55;4.40;;;;;;;;;;5037672;28;20087;-70
2023/08/31 02:05:41;;;;;;;4.93;4.53;;;;;;;;;;5055384;28;20029;-70
2023/08/31 02:08:06;;;;;;;6.35;4.93;;;;;;;;;;5055328;28;20450;-69
2023/08/31 02:10:31;;;;;;;5.57;5.05;;;;;;;;;;5021185;28;20021;-70
2023/08/31 02:12:57;;;;;;;6.05;5.20;;;;;;;;;;5037452;28;20095;-70
2023/08/31 02:15:22;;;;;;;5.28;4.75;;;;;;;;;;5037403;28;20461;-70
2023/08/31 02:17:47;;;;;;;5.38;4.63;;;;;;;;;;5055150;28;20025;-68
2023/08/31 02:20:14;;;;;;;4.93;4.53;;;;;;;;;;5037112;28;20033;-67
2023/08/31 02:22:39;;;;;;;5.93;4.25;;;;;;;;;;5036574;28;20036;-66
2023/08/31 02:25:05;;;;;;;7.32;4.90;;;;;;;;;;5055238;28;20358;-67
2023/08/31 02:27:31;;;;;;;5.20;4.78;;;;;;;;;;5055557;28;20468;-66
2023/08/31 02:29:56;;;;;;;5.47;4.97;;;;;;;;;;5055218;28;20475;-66
2023/08/31 02:32:22;;;;;;;8.52;5.07;;;;;;;;;;5020521;28;20032;-67
2023/08/31 02:34:47;;;;;;;5.78;5.28;;;;;;;;;;5036770;28;20033;-67
2023/08/31 02:37:12;;;;;;;5.40;4.90;;;;;;;;;;5054915;28;20017;-66
2023/08/31 02:39:38;;;;;;;6.00;5.35;;;;;;;;;;5020324;28;20511;-67
2023/08/31 02:42:05;;;;;;;5.93;5.25;;;;;;;;;;5036875;28;20469;-67
2023/08/31 02:44:30;;;;;;;6.45;5.55;;;;;;;;;;5054583;28;20032;-67
2023/08/31 02:46:56;;;;;;;6.10;5.53;;;;;;;;;;5054607;28;20520;-67
2023/08/31 02:49:21;;;;;;;5.93;5.43;;;;;;;;;;5037047;28;20500;-68
2023/08/31 02:51:47;;;;;;;6.53;5.68;;;;;;;;;;5054832;28;20377;-70
2023/08/31 02:54:13;;;;;;;6.05;5.55;;;;;;;;;;5054490;28;20086;-70
2023/08/31 02:56:38;;;;;;;6.70;6.10;;;;;;;;;;5054689;28;20381;-72
2023/08/31 02:59:03;;;;;;;6.47;5.80;;;;;;;;;;5036695;28;20083;-68
2023/08/31 03:01:29;;;;;;;6.22;5.63;;;;;;;;;;5036457;28;20036;-66
2023/08/31 03:03:54;;;;;;;5.97;5.43;;;;;;;;;;5054193;28;20064;-66
2023/08/31 03:06:21;;;;;;;6.22;5.68;;;;;;;;;;5036391;28;20036;-66
2023/08/31 03:08:46;;;;;;;6.05;5.53;;;;;;;;;;5054388;28;20029;-66
2023/08/31 03:11:14;;;;;;;5.53;5.05;;;;;;;;;;5054444;28;20071;-70
2023/08/31 03:13:41;;;;;;;5.20;4.75;;;;;;;;;;5019987;28;20078;-69
2023/08/31 03:16:07;;;;;;;6.25;5.65;;;;;;;;;;5036137;28;20029;-69
2023/08/31 03:18:33;;;;;;;6.00;5.50;;;;;;;;;;5036245;28;20029;-69
2023/08/31 03:20:58;;;;;;;5.65;5.15;;;;;;;;;;5053881;28;20552;-68
2023/08/31 03:23:24;;;;;;;5.85;5.35;;;;;;;;;;5053859;28;20029;-67
2023/08/31 03:25:50;;;;;;;6.22;5.68;;;;;;;;;;5036035;28;20045;-68
2023/08/31 03:28:15;;;;;;;7.60;6.40;;;;;;;;;;5036015;28;20388;-67
2023/08/31 03:30:40;;;;;;;7.20;5.75;;;;;;;;;;5036565;28;20036;-66
2023/08/31 03:33:06;;;;;;;6.93;6.13;;;;;;;;;;5053780;28;20032;-66
2023/08/31 03:35:32;;;;;;;7.18;6.47;;;;;;;;;;5035938;28;20078;-65
2023/08/31 03:37:58;;;;;;;8.00;6.43;;;;;;;;;;5036167;28;20036;-66
2023/08/31 03:40:23;;;;;;;8.48;6.40;;;;;;;;;;5054236;28;20025;-64
2023/08/31 03:42:50;;;;;;;7.55;5.95;;;;;;;;;;5035769;28;20473;-64
2023/08/31 03:45:15;;;;;;;8.48;6.07;;;;;;;;;;5035695;28;20048;-65
2023/08/31 03:47:41;;;;;;;7.55;6.25;;;;;;;;;;5053591;28;20092;-66
2023/08/31 03:50:06;;;;;;;7.90;6.40;;;;;;;;;;5054096;28;20029;-65
2023/08/31 03:52:32;;;;;;;7.85;6.38;;;;;;;;;;5053787;28;20029;-64
2023/08/31 03:54:57;;;;;;;6.70;6.15;;;;;;;;;;5035926;28;20060;-64
2023/08/31 03:57:23;;;;;;;6.38;5.78;;;;;;;;;;5035499;28;20075;-64
2023/08/31 03:59:50;;;;;;;6.20;5.60;;;;;;;;;;5035772;28;20398;-64
2023/08/31 04:02:16;;;;;;;6.40;5.82;;;;;;;;;;5035512;28;20040;-64
2023/08/31 04:04:41;;;;;;;5.85;5.28;;;;;;;;;;5019206;28;20119;-64
2023/08/31 04:07:07;;;;;;;6.60;5.80;;;;;;;;;;5036235;28;20032;-64
2023/08/31 04:09:32;;;;;;;7.45;6.05;;;;;;;;;;5019392;28;20032;-66
2023/08/31 04:11:58;;;;;;;7.00;6.00;;;;;;;;;;5053512;28;20029;-66
2023/08/31 04:14:26;;;;;;;8.02;5.93;;;;;;;;;;5053295;28;20071;-66
2023/08/31 04:16:51;;;;;;;6.75;6.03;;;;;;;;;;5035920;28;20025;-66
2023/08/31 04:19:17;;;;;;;6.13;5.53;;;;;;;;;;5035182;28;20059;-66
2023/08/31 04:21:43;;;;;;;8.07;6.28;;;;;;;;;;5053209;28;20065;-67
2023/08/31 04:24:15;;;;;;;7.07;6.18;;;;;;;;;;5053139;28;20041;-65
2023/08/31 04:26:42;;;;;;;7.85;6.97;;;;;;;;;;5053497;28;20078;-67
2023/08/31 04:29:08;;;;;;;8.20;6.90;;;;;;;;;;5053281;28;20033;-67
2023/08/31 04:31:33;;;;;;;7.90;7.10;;;;;;;;;;5053114;28;20035;-69
2023/08/31 04:33:58;;;;;;;8.40;7.05;;;;;;;;;;5053262;28;20029;-70
2023/08/31 04:36:25;;;;;;;8.32;7.40;;;;;;;;;;5053235;28;20060;-70
2023/08/31 04:38:52;;;;;;;7.93;6.88;;;;;;;;;;5053255;28;20043;-70
2023/08/31 04:41:17;;;;;;;11.20;8.73;;;;;;;;;;5052853;28;20029;-67
2023/08/31 04:43:43;;;;;;;13.50;9.02;;;;;;;;;;5053154;28;20032;-66
2023/08/31 04:46:08;;;;;;;11.98;9.27;;;;;;;;;;5056546;28;20029;-64
2023/08/31 04:48:33;;;;;;;10.23;8.90;;;;;;;;;;5038935;28;20053;-70
2023/08/31 04:50:59;;;;;;;12.00;9.02;;;;;;;;;;5056400;28;20476;-69
2023/08/31 04:53:24;;;;;;;12.63;8.75;;;;;;;;;;5056648;28;20534;-69
2023/08/31 04:55:50;;;;;;;14.43;10.00;;;;;;;;;;5056529;28;20036;-66
2023/08/31 04:58:15;;;;;;;14.85;10.10;;;;;;;;;;5039012;28;20041;-60
2023/08/31 05:00:41;;;;;;;12.85;10.05;;;;;;;;;;5039044;28;20037;-66
2023/08/31 05:03:06;;;;;;;13.20;10.00;;;;;;;;;;5057130;28;20055;-67
2023/08/31 05:05:32;;;;;;;14.27;10.05;;;;;;;;;;5056318;28;20028;-68
2023/08/31 05:07:58;;;;;;;13.68;9.73;;;;;;;;;;5038718;28;20036;-68
2023/08/31 05:10:24;;;;;;;14.02;11.23;;;;;;;;;;5038897;28;20062;-68
2023/08/31 05:12:49;;;;;;;12.68;10.20;;;;;;;;;;5056675;28;20021;-68
2023/08/31 05:15:14;;;;;;;12.50;10.23;;;;;;;;;;5056771;28;20152;-66
2023/08/31 05:17:40;;;;;;;13.27;11.00;;;;;;;;;;5056446;28;20433;-66
2023/08/31 05:20:07;;;;;;;14.77;10.07;;;;;;;;;;5055993;28;20094;-66
2023/08/31 05:22:33;;;;;;;12.55;10.20;;;;;;;;;;5055655;28;20032;-68
2023/08/31 05:24:58;;;;;;;15.68;10.45;;;;;;;;;;5054947;28;20041;-68
2023/08/31 05:27:24;;;;;;;13.50;10.85;;;;;;;;;;5023228;28;20037;-68
2023/08/31 05:29:49;;;;;;;163.25;23.02;;;;;;;;;;5016331;28;20018;-68
2023/08/31 05:32:14;;;;;;;14.60;10.77;;;;;;;;;;5015970;28;20060;-69
2023/08/31 05:34:40;;;;;;;14.68;10.65;;;;;;;;;;5016474;28;20040;-67
2023/08/31 05:37:06;;;;;;;19.52;11.48;;;;;;;;;;5016169;28;20509;-67
2023/08/31 05:39:31;;;;;;;14.90;11.27;;;;;;;;;;5016210;28;20018;-67
2023/08/31 05:41:56;;;;;;;17.75;12.00;;;;;;;;;;5016033;28;20394;-66
2023/08/31 05:44:22;;;;;;;17.70;13.05;;;;;;;;;;4998270;28;20041;-67
2023/08/31 05:46:47;;;;;;;16.40;12.18;;;;;;;;;;5015964;28;20018;-67
2023/08/31 05:49:12;;;;;;;16.92;12.30;;;;;;;;;;5016764;28;20034;-67
2023/08/31 05:51:38;;;;;;;15.70;11.68;;;;;;;;;;5016590;28;20573;-67
2023/08/31 05:54:03;;;;;;;15.50;12.15;;;;;;;;;;5016451;28;20022;-67
2023/08/31 05:56:28;;;;;;;15.20;10.65;;;;;;;;;;5017045;28;20053;-65
2023/08/31 05:58:54;;;;;;;14.75;12.43;;;;;;;;;;5016204;28;20393;-66
2023/08/31 06:01:20;;;;;;;18.90;14.27;;;;;;;;;;5019317;28;20466;-66
2023/08/31 06:03:45;;;;;;;21.10;14.02;;;;;;;;;;4998050;28;20048;-66
2023/08/31 06:06:11;;;;;;;19.85;14.25;;;;;;;;;;5015736;28;20022;-65
2023/08/31 06:08:36;;;;;;;15.93;12.75;;;;;;;;;;5015970;28;20017;-66
2023/08/31 06:11:02;;;;;;;17.20;12.73;;;;;;;;;;4998625;28;20032;-66
2023/08/31 06:13:27;;;;;;;18.88;12.85;;;;;;;;;;5015745;28;20057;-65
2023/08/31 06:15:55;;;;;;;23.02;14.93;;;;;;;;;;4997827;28;20041;-66
2023/08/31 06:18:20;;;;;;;18.17;14.63;;;;;;;;;;5013532;28;20382;-66
2023/08/31 06:20:48;;;;;;;14.85;11.07;;;;;;;;;;5013667;28;20045;-66
2023/08/31 06:23:13;;;;;;;13.40;10.05;;;;;;;;;;5013602;28;20030;-67
2023/08/31 06:25:38;;;;;;;11.25;9.80;;;;;;;;;;5013658;28;20021;-67
2023/08/31 06:28:08;;;;;;;10.52;9.13;;;;;;;;;;5013881;28;20105;-67
2023/08/31 06:30:33;;;;;;;11.27;8.67;;;;;;;;;;5013837;28;20541;-67
2023/08/31 06:32:59;;;;;;;8.80;7.50;;;;;;;;;;4997065;28;20096;-67
2023/08/31 06:35:24;;;;;;;8.18;7.25;;;;;;;;;;4997163;28;20034;-67
2023/08/31 06:37:50;;;;;;;7.82;7.13;;;;;;;;;;4996907;28;20064;-67
2023/08/31 06:40:15;;;;;;;214.82;25.35;;;;;;;;;;5014713;28;20146;-67
2023/08/31 06:42:41;;;;;;;23.83;8.10;;;;;;;;;;5014480;28;20034;-67
2023/08/31 06:45:07;;;;;;;230.02;29.77;;;;;;;;;;5014617;28;20053;-67
2023/08/31 06:47:33;;;;;;;33.72;8.70;;;;;;;;;;5014522;28;20458;-67
2023/08/31 06:49:59;;;;;;;10.27;6.28;;;;;;;;;;5014728;28;20030;-66
2023/08/31 06:52:25;;;;;;;12.68;7.05;;;;;;;;;;5014505;28;20038;-67
2023/08/31 06:54:55;;;;;;;15.00;7.07;;;;;;;;;;4980757;28;20454;-67
2023/08/31 06:57:24;;;;;;;14.50;6.53;;;;;;;;;;4996733;28;20035;-67
2023/08/31 06:59:50;;;;;;;11.20;7.07;;;;;;;;;;5014163;28;20605;-67
2023/08/31 07:02:15;;;;;;;11.55;5.88;;;;;;;;;;4996773;28;20041;-67
2023/08/31 07:04:41;;;;;;;13.82;5.85;;;;;;;;;;5014238;28;20088;-67
2023/08/31 07:07:08;;;;;;;11.70;6.03;;;;;;;;;;5014081;28;20034;-67
2023/08/31 07:09:34;;;;;;;9.00;5.75;;;;;;;;;;5014299;28;20418;-67
2023/08/31 07:11:59;;;;;;;12.13;6.00;;;;;;;;;;5014274;28;20080;-67
2023/08/31 07:14:25;;;;;;;9.77;5.53;;;;;;;;;;5014070;28;20042;-67
2023/08/31 07:16:51;;;;;;;13.43;5.65;;;;;;;;;;5014200;28;20066;-67
2023/08/31 07:19:16;;;;;;;9.23;6.97;;;;;;;;;;5013559;28;20117;-67
2023/08/31 07:21:41;;;;;;;9.95;6.63;;;;;;;;;;5014106;28;20018;-67
2023/08/31 07:24:07;;;;;;;9.57;5.85;;;;;;;;;;5013857;28;20516;-67
2023/08/31 07:26:32;;;;;;;10.32;6.32;;;;;;;;;;5014029;28;20041;-67
2023/08/31 07:28:58;;;;;;;8.43;4.95;;;;;;;;;;5013895;28;20038;-67
2023/08/31 07:31:23;;;;;;;9.80;4.25;;;;;;;;;;5013930;28;20034;-67
2023/08/31 07:33:48;;;;;;;8.13;4.75;;;;;;;;;;5013874;28;20054;-67
2023/08/31 07:36:15;;;;;;;8.40;4.55;;;;;;;;;;5013844;28;20540;-67
2023/08/31 07:38:40;;;;;;;7.53;4.32;;;;;;;;;;5013076;28;20026;-67
2023/08/31 07:41:06;;;;;;;6.15;4.28;;;;;;;;;;5013110;28;20034;-67
2023/08/31 07:43:31;;;;;;;5.15;4.03;;;;;;;;;;5013316;28;20046;-67
2023/08/31 07:45:56;;;;;;;4.35;3.90;;;;;;;;;;4995790;28;20026;-67
2023/08/31 07:48:22;;;;;;;4.55;3.90;;;;;;;;;;4995964;28;20017;-67
2023/08/31 07:50:48;;;;;;;4.15;3.22;;;;;;;;;;5013381;28;20030;-67
2023/08/31 07:53:17;;;;;;;5.03;3.63;;;;;;;;;;5013080;28;20403;-67
2023/08/31 07:55:50;;;;;;;3.90;3.50;;;;;;;;;;4994345;28;20128;-67
2023/08/31 07:58:15;;;;;;;6.00;3.83;;;;;;;;;;5010969;28;20034;-67
2023/08/31 08:00:41;;;;;;;5.20;3.50;;;;;;;;;;4993423;28;20034;-67
2023/08/31 08:03:06;;;;;;;5.25;3.80;;;;;;;;;;5010739;28;20030;-67
2023/08/31 08:05:31;;;;;;;3.60;3.30;;;;;;;;;;5011754;28;20619;-67
2023/08/31 08:07:57;;;;;;;4.90;3.05;;;;;;;;;;5012132;28;20033;-67
2023/08/31 08:10:22;;;;;;;6.05;3.33;;;;;;;;;;5012330;28;20451;-67
2023/08/31 08:12:47;;;;;;;3.72;2.85;;;;;;;;;;4994422;28;20498;-67
2023/08/31 08:15:13;;;;;;;5.00;3.20;;;;;;;;;;5012192;28;20041;-67
2023/08/31 08:17:38;;;;;;;3.72;2.85;;;;;;;;;;5011833;28;20029;-67
2023/08/31 08:20:07;;;;;;;5.80;3.10;;;;;;;;;;5013431;28;20046;-67
2023/08/31 08:22:32;;;;;;;2.92;2.72;;;;;;;;;;5016184;28;20026;-67
2023/08/31 08:24:58;;;;;;;3.50;2.90;;;;;;;;;;5016669;28;20049;-67
2023/08/31 08:27:23;;;;;;;3.22;2.50;;;;;;;;;;4999485;28;20034;-68
2023/08/31 08:29:48;;;;;;;4.07;2.20;;;;;;;;;;5017327;28;20080;-68
2023/08/31 08:32:14;;;;;;;4.43;2.97;;;;;;;;;;5016748;28;20030;-67
2023/08/31 08:34:39;;;;;;;2.72;2.53;;;;;;;;;;5017200;28;20029;-67
2023/08/31 08:37:04;;;;;;;4.30;2.72;;;;;;;;;;5017076;28;20113;-68
2023/08/31 08:39:30;;;;;;;2.72;2.40;;;;;;;;;;4999343;28;20405;-67
2023/08/31 08:41:57;;;;;;;5.28;3.22;;;;;;;;;;5017072;28;20034;-67
2023/08/31 08:44:23;;;;;;;6.22;5.38;;;;;;;;;;4999067;28;20436;-67
2023/08/31 08:46:49;;;;;;;5.78;3.58;;;;;;;;;;5017007;28;20026;-67
2023/08/31 08:49:15;;;;;;;3.20;2.80;;;;;;;;;;4999231;28;20347;-67
2023/08/31 08:51:41;;;;;;;5.05;3.55;;;;;;;;;;4999248;28;20077;-67
2023/08/31 08:54:06;;;;;;;3.67;3.13;;;;;;;;;;5016723;28;20030;-67
2023/08/31 08:56:32;;;;;;;2.88;2.67;;;;;;;;;;5016848;28;20026;-67
2023/08/31 08:58:57;;;;;;;4.55;2.97;;;;;;;;;;4998945;28;20037;-67
2023/08/31 09:01:23;;;;;;;3.78;3.40;;;;;;;;;;5016613;28;20037;-67
2023/08/31 09:03:49;;;;;;;3.97;2.80;;;;;;;;;;5016566;28;20038;-67
2023/08/31 09:06:15;;;;;;;2.60;2.40;;;;;;;;;;4998986;28;20025;-67
2023/08/31 09:08:41;;;;;;;3.78;2.83;;;;;;;;;;4998973;28;20070;-67
2023/08/31 09:11:06;;;;;;;3.55;2.78;;;;;;;;;;4999806;28;20111;-67
2023/08/31 09:13:33;;;;;;;2.97;2.20;;;;;;;;;;5016809;28;20107;-67
2023/08/31 09:15:58;;;;;;;3.03;2.28;;;;;;;;;;4982873;28;20076;-67
2023/08/31 09:18:25;;;;;;;2.83;2.63;;;;;;;;;;5029704;28;20469;-67
2023/08/31 09:20:51;;;;;;;2.20;2.10;;;;;;;;;;5016385;28;20494;-67
2023/08/31 09:23:16;;;;;;;2.65;2.45;;;;;;;;;;4998992;28;20044;-67
2023/08/31 09:25:46;;;;;;;3.67;2.17;;;;;;;;;;5030708;28;20117;-67
2023/08/31 09:28:12;;;;;;;3.72;2.35;;;;;;;;;;5019613;28;20092;-67
2023/08/31 09:30:37;;;;;;;2.13;1.98;;;;;;;;;;5021725;28;20037;-67
2023/08/31 09:33:04;;;;;;;2.15;1.95;;;;;;;;;;5016292;28;20022;-67
2023/08/31 09:35:29;;;;;;;1.90;1.75;;;;;;;;;;5016481;28;20079;-67
2023/08/31 09:37:58;;;;;;;2.05;1.85;;;;;;;;;;5020478;28;20033;-67
2023/08/31 09:40:24;;;;;;;2.08;1.90;;;;;;;;;;5021697;28;20053;-67
2023/08/31 09:42:52;;;;;;;2.00;1.88;;;;;;;;;;5010237;28;20026;-67
2023/08/31 09:45:25;;;;;;;2.40;2.20;;;;;;;;;;5003656;28;20176;-67
2023/08/31 09:47:50;;;;;;;2.17;1.80;;;;;;;;;;5023089;28;20022;-67
2023/08/31 09:50:16;;;;;;;2.65;1.80;;;;;;;;;;4998203;28;20033;-67
2023/08/31 09:52:44;;;;;;;2.47;1.63;;;;;;;;;;4982737;28;20462;-67
2023/08/31 09:55:10;;;;;;;2.00;1.80;;;;;;;;;;5016239;28;20017;-67
2023/08/31 09:57:36;;;;;;;1.95;1.85;;;;;;;;;;5016490;28;20069;-67
2023/08/31 10:00:02;;;;;;;1.83;1.73;;;;;;;;;;5016276;28;20073;-67
2023/08/31 10:02:31;;;;;;;1.98;1.88;;;;;;;;;;5016302;28;20038;-67
2023/08/31 10:04:58;;;;;;;1.98;1.77;;;;;;;;;;5016087;28;20053;-67
2023/08/31 10:07:23;;;;;;;2.47;1.73;;;;;;;;;;5016557;28;20366;-67
2023/08/31 10:09:49;;;;;;;1.63;1.52;;;;;;;;;;5002806;28;20025;-67
2023/08/31 10:12:14;;;;;;;2.00;1.80;;;;;;;;;;5035280;28;20454;-67
2023/08/31 10:14:40;;;;;;;2.85;1.65;;;;;;;;;;5035728;28;20064;-66
2023/08/31 10:17:05;;;;;;;1.73;1.60;;;;;;;;;;5035853;28;20092;-66
2023/08/31 10:19:31;;;;;;;1.90;1.80;;;;;;;;;;5035402;28;20501;-66
2023/08/31 10:22:00;;;;;;;1.85;1.75;;;;;;;;;;5035530;28;20035;-67
2023/08/31 10:24:43;;;;;;;1.92;1.83;;;;;;;;;;5035192;28;20037;-67
2023/08/31 10:27:19;;;;;;;1.88;1.77;;;;;;;;;;5001274;28;20025;-67
2023/08/31 10:29:44;;;;;;;2.10;2.00;;;;;;;;;;5017885;28;20053;-67
2023/08/31 10:32:09;;;;;;;1.80;1.70;;;;;;;;;;5035295;28;20063;-67
2023/08/31 10:34:37;;;;;;;1.98;1.88;;;;;;;;;;5035339;28;20038;-67
2023/08/31 10:37:19;;;;;;;2.33;2.20;;;;;;;;;;5031816;28;20033;-67
2023/08/31 10:39:44;;;;;;;2.10;1.92;;;;;;;;;;4997155;28;20101;-67
2023/08/31 10:42:11;;;;;;;2.58;2.38;;;;;;;;;;4996555;28;20462;-67
2023/08/31 10:44:36;;;;;;;6.72;2.10;;;;;;;;;;4997153;28;20029;-66
2023/08/31 10:47:05;;;;;;;1.95;1.85;;;;;;;;;;5014765;28;20018;-67
2023/08/31 10:49:32;;;;;;;1.85;1.75;;;;;;;;;;4996912;28;20129;-67
2023/08/31 10:52:19;;;;;;;2.22;1.80;;;;;;;;;;4996989;28;20034;-66
2023/08/31 10:54:46;;;;;;;2.05;1.88;;;;;;;;;;4996543;28;20128;-67
2023/08/31 10:57:13;;;;;;;1.83;1.73;;;;;;;;;;5014487;28;20040;-67
2023/08/31 10:59:41;;;;;;;1.70;1.60;;;;;;;;;;5013890;28;20061;-66
2023/08/31 11:02:08;;;;;;;1.83;1.73;;;;;;;;;;5014334;28;20044;-66
2023/08/31 11:04:52;;;;;;;1.77;1.60;;;;;;;;;;5013715;28;20030;-66
2023/08/31 11:07:19;;;;;;;1.75;1.65;;;;;;;;;;4996499;28;20083;-67
2023/08/31 11:09:45;;;;;;;1.58;1.48;;;;;;;;;;5013729;28;20030;-66
2023/08/31 11:12:11;;;;;;;2.20;2.00;;;;;;;;;;5013890;28;20601;-67
2023/08/31 11:14:36;;;;;;;1.60;1.50;;;;;;;;;;5014063;28;20125;-67
2023/08/31 11:17:04;;;;;;;1.65;1.55;;;;;;;;;;4979942;28;20091;-66
2023/08/31 11:19:30;;;;;;;1.70;1.60;;;;;;;;;;5013588;28;20052;-66
2023/08/31 11:21:55;;;;;;;2.28;1.92;;;;;;;;;;5013661;28;20029;-66
2023/08/31 11:24:21;;;;;;;1.40;1.40;;;;;;;;;;5013920;28;20025;-66
2023/08/31 11:26:51;;;;;;;1.60;1.50;;;;;;;;;;4980184;28;20393;-66
2023/08/31 11:29:23;;;;;;;2.35;1.80;;;;;;;;;;5013918;28;20025;-66
2023/08/31 11:31:48;;;;;;;1.80;1.70;;;;;;;;;;5013935;28;20040;-66
2023/08/31 11:34:17;;;;;;;1.70;1.60;;;;;;;;;;4996654;28;20104;-67
2023/08/31 11:36:42;;;;;;;2.78;1.73;;;;;;;;;;4996284;28;20432;-67
2023/08/31 11:39:11;;;;;;;1.63;1.52;;;;;;;;;;5013839;28;20489;-67
2023/08/31 11:41:41;;;;;;;1.50;1.40;;;;;;;;;;5013693;28;20026;-67
2023/08/31 11:44:16;;;;;;;1.92;1.67;;;;;;;;;;4979746;28;20400;-66
2023/08/31 11:46:44;;;;;;;1.63;1.52;;;;;;;;;;4996066;28;20032;-66
2023/08/31 11:49:10;;;;;;;1.92;1.80;;;;;;;;;;5013643;28;20037;-66
2023/08/31 11:51:36;;;;;;;1.63;1.48;;;;;;;;;;4996227;28;20433;-66
2023/08/31 11:54:02;;;;;;;1.70;1.60;;;;;;;;;;5012764;28;20026;-67
2023/08/31 11:56:48;;;;;;;1.85;1.67;;;;;;;;;;5013652;28;20458;-67
2023/08/31 11:59:19;;;;;;;1.92;1.77;;;;;;;;;;4995955;28;20187;-67
2023/08/31 12:01:49;;;;;;;1.70;1.60;;;;;;;;;;4996231;28;20026;-66
2023/08/31 12:04:51;;;;;;;1.83;1.73;;;;;;;;;;5013806;28;20033;-67
2023/08/31 12:07:17;;;;;;;3.03;1.63;;;;;;;;;;5014211;28;20033;-67
2023/08/31 12:09:45;;;;;;;2.28;1.75;;;;;;;;;;4996717;28;20022;-67
2023/08/31 12:12:13;;;;;;;2.08;1.98;;;;;;;;;;5013820;28;20041;-67
2023/08/31 12:14:44;;;;;;;1.67;1.58;;;;;;;;;;5013575;28;20075;-67
2023/08/31 12:17:10;;;;;;;1.70;1.60;;;;;;;;;;4996367;28;20042;-66
2023/08/31 12:19:41;;;;;;;2.33;1.70;;;;;;;;;;5013648;28;20046;-66
2023/08/31 12:22:12;;;;;;;2.00;1.90;;;;;;;;;;5013924;28;20034;-66
2023/08/31 12:24:40;;;;;;;1.65;1.55;;;;;;;;;;5013833;28;20430;-67
2023/08/31 12:27:06;;;;;;;1.95;1.77;;;;;;;;;;4979932;28;20109;-67
2023/08/31 12:29:31;;;;;;;2.00;1.90;;;;;;;;;;4996349;28;20037;-67
2023/08/31 12:31:57;;;;;;;2.15;2.03;;;;;;;;;;4979804;28;20022;-67
2023/08/31 12:34:23;;;;;;;1.95;1.85;;;;;;;;;;4996390;28;20026;-67
2023/08/31 12:36:48;;;;;;;1.90;1.80;;;;;;;;;;4996085;28;20036;-67
2023/08/31 12:39:14;;;;;;;2.85;1.52;;;;;;;;;;5014044;28;20486;-67
2023/08/31 12:44:38;;;;;;;3.10;2.58;;;;;;;;;;4946333;23;20518;-69
2023/08/31 12:47:04;;;;;;;2.35;1.80;;;;;;;;;;4985314;23;20051;-69
2023/08/31 12:49:30;;;;;;;2.25;1.70;;;;;;;;;;4973906;28;20031;-69
2023/08/31 12:51:55;;;;;;;2.47;1.95;;;;;;;;;;4973266;28;20513;-69
2023/08/31 12:54:20;;;;;;;2.60;2.40;;;;;;;;;;4955316;28;20033;-68
2023/08/31 12:56:46;;;;;;;1.95;1.85;;;;;;;;;;4955474;28;20031;-68
2023/08/31 12:59:11;;;;;;;1.80;1.70;;;;;;;;;;4955428;28;20082;-68
2023/08/31 13:01:38;;;;;;;1.55;1.42;;;;;;;;;;4973207;28;20034;-68
2023/08/31 13:04:04;;;;;;;3.15;2.42;;;;;;;;;;4973307;28;20039;-69
2023/08/31 13:06:36;;;;;;;1.90;1.70;;;;;;;;;;5024589;23;20051;-66
2023/08/31 13:09:03;;;;;;;3.38;1.80;;;;;;;;;;4939400;29;20043;-67
2023/08/31 13:11:28;;;;;;;1.77;1.67;;;;;;;;;;4958742;29;20031;-67
2023/08/31 13:13:55;;;;;;;1.92;1.83;;;;;;;;;;4958593;29;20046;-67
2023/08/31 13:16:24;;;;;;;2.10;1.90;;;;;;;;;;4949766;29;20031;-67
2023/08/31 13:18:49;;;;;;;1.67;1.58;;;;;;;;;;4939451;29;20023;-66
2023/08/31 13:21:14;;;;;;;1.77;1.65;;;;;;;;;;4921979;29;20074;-67
2023/08/31 13:23:42;;;;;;;1.52;1.42;;;;;;;;;;4939242;29;20118;-67
2023/08/31 13:26:08;;;;;;;1.60;1.50;;;;;;;;;;4939149;29;20036;-66
2023/08/31 13:28:34;;;;;;;1.70;1.33;;;;;;;;;;4939271;29;20082;-66
2023/08/31 13:31:00;;;;;;;1.60;1.50;;;;;;;;;;4938827;29;20069;-66
2023/08/31 13:33:28;;;;;;;1.42;1.27;;;;;;;;;;4937525;29;20047;-67
2023/08/31 13:35:53;;;;;;;1.67;1.58;;;;;;;;;;4920706;29;20514;-67
2023/08/31 13:38:19;;;;;;;2.03;1.90;;;;;;;;;;4936736;29;20028;-67
2023/08/31 13:40:44;;;;;;;1.50;1.40;;;;;;;;;;4937881;29;20030;-67
2023/08/31 13:43:09;;;;;;;3.28;1.92;;;;;;;;;;4937832;29;20038;-67
2023/08/31 13:45:35;;;;;;;2.55;1.85;;;;;;;;;;4920755;29;20038;-67
2023/08/31 13:48:00;;;;;;;3.05;2.05;;;;;;;;;;4937714;29;20031;-67
2023/08/31 13:50:26;;;;;;;1.90;1.80;;;;;;;;;;4937603;29;20027;-67
2023/08/31 13:52:52;;;;;;;2.63;1.55;;;;;;;;;;4936452;29;20024;-67
2023/08/31 13:55:17;;;;;;;2.42;2.17;;;;;;;;;;4937435;29;20036;-67
2023/08/31 13:57:43;;;;;;;2.25;2.00;;;;;;;;;;4937437;29;20115;-67
2023/08/31 14:00:09;;;;;;;1.63;1.52;;;;;;;;;;4920450;29;20038;-67
2023/08/31 14:02:36;;;;;;;2.10;1.90;;;;;;;;;;4937374;29;20030;-67
2023/08/31 14:05:02;;;;;;;3.08;1.70;;;;;;;;;;4937652;29;20032;-67
2023/08/31 14:07:27;;;;;;;1.60;1.50;;;;;;;;;;4936785;29;20054;-67
2023/08/31 14:09:53;;;;;;;1.60;1.50;;;;;;;;;;4937077;29;20110;-67
2023/08/31 14:12:19;;;;;;;1.52;1.42;;;;;;;;;;4936011;29;20517;-66
2023/08/31 14:14:45;;;;;;;1.48;1.38;;;;;;;;;;4937134;29;20040;-66
2023/08/31 14:17:11;;;;;;;1.30;1.20;;;;;;;;;;4936177;29;20050;-67
2023/08/31 14:19:37;;;;;;;1.73;1.63;;;;;;;;;;4937145;29;20484;-67
2023/08/31 14:22:04;;;;;;;2.50;1.40;;;;;;;;;;4937042;29;20036;-67
2023/08/31 14:24:29;;;;;;;1.70;1.60;;;;;;;;;;4935683;29;20043;-67
2023/08/31 14:26:54;;;;;;;1.92;1.50;;;;;;;;;;4919969;29;20028;-67
2023/08/31 14:29:20;;;;;;;1.58;1.48;;;;;;;;;;4936866;29;20028;-67
2023/08/31 14:31:46;;;;;;;1.35;1.23;;;;;;;;;;4936752;29;20055;-67
2023/08/31 14:34:11;;;;;;;1.50;1.40;;;;;;;;;;4936789;29;20563;-67
2023/08/31 14:36:36;;;;;;;2.05;1.67;;;;;;;;;;4936648;29;20115;-67
2023/08/31 14:39:02;;;;;;;1.63;1.52;;;;;;;;;;4936678;29;20075;-67